Jiutai, China
Current Conditions -  °F | °C
As of 4:00 PM on Tuesday 21 Oct 2014 (Local Time) from ZYCC Reporting Station
Smoke Smoke  
Wind Chill: 37°   Ceiling: Unl
Heat Index: 37°   Visibility: 3mi
Dew Point: -2°   Wind: 2mph
Humidity: 19%   Direction: NA
Pressure: 30.3"   Gusts: NA
Location:  44.15°N, 125.84°E
Report Text: ZYCC 210800Z VRB01MPS 5000 FU NSC 03/M19 Q1026 NOSIG
Loading
Personal Weather Stations






























Interactive Weather Map
Tropical Storm Tracking
New forecast layout! Learn more

10-Day Weather Forecast

Advertisements
Track Severe Weather on mobile